Time;durP1;ratioP1;P1;durP2;ratioP2;P2;SDS_P1;SDS_P2;PMS_P1;PMS_P2;Temp;Humidity;BMP_temperature;BMP_pressure;BME280_temperature;BME280_humidity;BME280_pressure;Samples;Min_cycle;Max_cycle;Signal;HPM_P1;HPM_P2
2022/03/25 00:03:06;;;;;;;90.50;81.53;;;;;;;8.11;100.00;103065.84;1806353;77;86224;-69
2022/03/25 00:08:51;;;;;;;92.33;83.00;;;;;;;8.13;100.00;103060.08;1912361;74;39735;-70
2022/03/25 00:14:35;;;;;;;93.33;83.93;;;;;;;8.07;100.00;103058.19;1870884;75;86560;-70
2022/03/25 00:20:21;;;;;;;90.53;81.13;;;;;;;7.69;100.00;103060.77;1865231;75;86537;-67
2022/03/25 00:26:07;;;;;;;89.70;80.50;;;;;;;7.73;100.00;103056.50;1801269;77;86307;-67
2022/03/25 00:31:52;;;;;;;87.50;78.47;;;;;;;7.74;100.00;103053.50;1846797;73;39622;-68
2022/03/25 00:37:37;;;;;;;88.27;79.13;;;;;;;7.57;100.00;103058.31;1824185;77;86573;-67
2022/03/25 00:43:26;;;;;;;91.20;82.03;;;;;;;7.68;100.00;103067.35;1866250;75;86543;-67
2022/03/25 00:49:12;;;;;;;87.33;78.73;;;;;;;7.42;100.00;103065.94;1798975;77;86546;-67
2022/03/25 00:54:57;;;;;;;90.93;81.50;;;;;;;7.42;100.00;103064.55;1810509;76;86086;-67
2022/03/25 01:00:42;;;;;;;95.60;86.33;;;;;;;7.44;100.00;103063.30;1840839;77;86659;-69
2022/03/25 01:06:27;;;;;;;93.07;83.70;;;;;;;7.32;100.00;103068.58;1808840;78;86920;-69
2022/03/25 01:12:14;;;;;;;95.37;86.13;;;;;;;7.18;100.00;103066.01;1861456;76;86314;-68
2022/03/25 01:21:06;;;;;;;104.43;94.27;;;;;;;7.10;100.00;103057.35;1953529;72;86521;-70
2022/03/25 01:23:37;;;;;;;106.60;96.27;;;;;;;6.93;100.00;103067.63;1872355;74;938879;-70
2022/03/25 01:26:08;;;;;;;107.90;97.73;;;;;;;6.94;100.00;103066.02;1878055;74;940682;-68
2022/03/25 01:28:39;;;;;;;105.72;95.45;;;;;;;6.86;100.00;103061.53;1869460;73;939911;-70
2022/03/25 01:31:10;;;;;;;104.77;94.93;;;;;;;6.77;100.00;103059.16;1880972;75;940789;-70
2022/03/25 01:33:42;;;;;;;106.07;96.32;;;;;;;6.72;100.00;103058.39;1865413;75;940801;-67
2022/03/25 01:36:12;;;;;;;103.07;93.37;;;;;;;6.63;100.00;103061.55;1880611;74;940903;-68
2022/03/25 01:38:44;;;;;;;104.77;94.63;;;;;;;6.72;100.00;103054.24;1868211;74;939892;-67
2022/03/25 01:41:17;;;;;;;105.27;95.43;;;;;;;6.77;100.00;103058.62;1879196;74;940842;-68
2022/03/25 01:43:54;;;;;;;106.73;96.53;;;;;;;6.73;100.00;103055.10;1868153;74;941097;-68
2022/03/25 01:46:25;;;;;;;104.07;93.80;;;;;;;6.69;100.00;103058.81;1895890;73;938896;-68
2022/03/25 01:48:56;;;;;;;103.80;93.83;;;;;;;6.61;100.00;103060.89;1883386;73;940828;-69
2022/03/25 01:54:42;;;;;;;103.60;93.57;;;;;;;6.47;100.00;103066.02;1823724;78;85624;-69
2022/03/25 02:00:29;;;;;;;104.57;94.17;;;;;;;6.34;100.00;103060.75;1820204;78;85620;-69
2022/03/25 02:06:13;;;;;;;105.27;95.10;;;;;;;5.94;100.00;103066.55;1830168;77;86580;-67
2022/03/25 02:11:59;;;;;;;99.63;90.57;;;;;;;5.73;100.00;103066.55;1893708;74;39835;-70
2022/03/25 02:17:44;;;;;;;96.43;87.47;;;;;;;5.83;100.00;103064.80;1907399;74;39671;-68
2022/03/25 02:23:28;;;;;;;97.10;88.10;;;;;;;6.04;100.00;103062.03;1861299;76;86382;-66
2022/03/25 02:29:16;;;;;;;98.97;89.47;;;;;;;6.11;100.00;103062.95;1885672;74;86253;-70
2022/03/25 02:35:00;;;;;;;101.77;91.57;;;;;;;6.15;100.00;103066.16;1914777;74;86117;-68
2022/03/25 02:40:46;;;;;;;109.50;98.70;;;;;;;6.12;100.00;103066.01;1903825;74;39725;-67
2022/03/25 02:43:18;;;;;;;104.63;94.00;;;;;;;6.05;100.00;103074.78;1853062;75;938915;-68
2022/03/25 02:45:50;;;;;;;102.92;93.00;;;;;;;6.04;100.00;103077.73;1842496;75;939960;-70
2022/03/25 02:51:35;;;;;;;111.00;99.57;;;;;;;6.16;100.00;103061.79;1866398;76;86696;-68
2022/03/25 02:57:20;;;;;;;110.80;100.33;;;;;;;6.07;100.00;103064.41;1879746;74;86069;-70
2022/03/25 03:03:05;;;;;;;107.27;96.90;;;;;;;6.13;100.00;103062.20;1922406;72;85977;-67
2022/03/25 03:05:36;;;;;;;106.10;95.80;;;;;;;6.01;100.00;103062.97;1868671;73;938789;-68
2022/03/25 03:11:23;;;;;;;107.00;96.30;;;;;;;5.98;100.00;103066.98;1871224;74;86134;-67
2022/03/25 03:17:10;;;;;;;110.30;99.57;;;;;;;5.95;100.00;103059.09;1841847;76;86767;-67
2022/03/25 03:22:57;;;;;;;108.40;97.73;;;;;;;5.78;100.00;103061.78;1898248;74;39619;-68
2022/03/25 03:28:44;;;;;;;104.87;94.70;;;;;;;5.65;100.00;103052.88;1807749;78;86496;-68
2022/03/25 03:34:29;;;;;;;104.40;94.47;;;;;;;5.66;100.00;103057.87;1867663;76;86703;-70
2022/03/25 03:40:15;;;;;;;105.63;95.83;;;;;;;5.54;100.00;103060.32;1842030;76;86471;-69
2022/03/25 03:46:00;;;;;;;108.40;97.90;;;;;;;5.44;100.00;103066.16;1927380;73;86491;-67
2022/03/25 03:51:46;;;;;;;103.37;93.10;;;;;;;5.56;100.00;103062.89;1867264;73;39571;-68
2022/03/25 03:57:30;;;;;;;105.13;95.67;;;;;;;5.57;100.00;103065.42;1855698;76;86646;-70
2022/03/25 04:03:14;;;;;;;103.13;93.23;;;;;;;5.50;100.00;103063.14;1826843;78;86208;-68
2022/03/25 04:09:01;;;;;;;106.80;96.73;;;;;;;5.41;100.00;103063.80;1914547;72;86618;-69
2022/03/25 04:14:48;;;;;;;103.23;93.53;;;;;;;5.47;100.00;103072.67;1871442;73;39681;-70
2022/03/25 04:20:33;;;;;;;100.70;91.77;;;;;;;5.41;100.00;103074.83;1795398;78;86413;-67
2022/03/25 04:26:17;;;;;;;106.67;97.07;;;;;;;5.43;100.00;103071.89;1835753;76;86312;-67
2022/03/25 04:32:02;;;;;;;104.23;94.60;;;;;;;5.40;100.00;103066.75;1913874;72;86241;-66
2022/03/25 04:37:46;;;;;;;105.43;95.67;;;;;;;5.38;100.00;103083.50;1912103;74;39749;-69
2022/03/25 04:43:33;;;;;;;107.63;97.17;;;;;;;5.30;100.00;103083.63;1839712;75;86338;-68
2022/03/25 04:49:18;;;;;;;108.17;98.23;;;;;;;5.18;100.00;103092.61;1903851;73;86566;-70
2022/03/25 04:55:02;;;;;;;108.47;98.03;;;;;;;5.15;100.00;103090.22;1910264;74;87012;-68
2022/03/25 05:00:48;;;;;;;101.73;92.87;;;;;;;5.26;100.00;103095.23;1901579;73;39809;-67
2022/03/25 05:06:37;;;;;;;106.83;96.57;;;;;;;4.96;100.00;103098.05;1796278;78;86299;-65
2022/03/25 05:12:21;;;;;;;108.77;98.53;;;;;;;5.08;100.00;103098.42;1864930;75;85987;-69
2022/03/25 05:18:06;;;;;;;103.00;93.30;;;;;;;5.09;100.00;103102.03;1875335;74;86429;-69
2022/03/25 05:23:51;;;;;;;108.80;98.10;;;;;;;5.10;100.00;103109.23;1861668;73;39727;-70
2022/03/25 05:29:35;;;;;;;109.97;99.37;;;;;;;5.05;100.00;103107.05;1907328;75;86786;-68
2022/03/25 05:35:21;;;;;;;109.13;98.77;;;;;;;5.04;100.00;103108.98;1877546;74;86725;-66
2022/03/25 05:37:53;;;;;;;107.63;97.30;;;;;;;4.94;100.00;103119.95;1815379;75;939125;-67
2022/03/25 05:43:39;;;;;;;107.00;96.60;;;;;;;4.84;100.00;103123.00;1821383;76;86680;-66
2022/03/25 05:49:24;;;;;;;103.30;93.30;;;;;;;4.79;100.00;103127.40;1871008;74;86740;-70
2022/03/25 05:55:12;;;;;;;105.30;95.27;;;;;;;4.78;100.00;103131.19;1890009;75;86288;-68
2022/03/25 06:00:55;;;;;;;107.87;96.87;;;;;;;4.79;100.00;103137.86;1904733;74;39608;-69
2022/03/25 06:06:41;;;;;;;103.43;92.43;;;;;;;4.73;100.00;103146.91;1867914;76;85470;-67
2022/03/25 06:12:27;;;;;;;103.63;92.93;;;;;;;4.64;100.00;103143.91;1784608;78;85633;-66
2022/03/25 06:18:12;;;;;;;106.33;95.63;;;;;;;4.62;100.00;103141.86;1875986;75;86151;-70
2022/03/25 06:23:59;;;;;;;102.83;91.87;;;;;;;4.78;100.00;103147.20;1938371;72;85358;-65
2022/03/25 06:29:43;;;;;;;104.10;93.37;;;;;;;4.91;100.00;103145.14;1851471;75;86352;-69
2022/03/25 06:35:27;;;;;;;103.03;92.60;;;;;;;5.16;100.00;103145.14;1788082;78;86571;-69
2022/03/25 06:41:13;;;;;;;105.40;94.90;;;;;;;5.14;100.00;103154.63;1805178;76;85460;-68
2022/03/25 06:46:58;;;;;;;104.27;94.07;;;;;;;5.21;100.00;103155.58;1922421;74;85585;-68
2022/03/25 06:52:44;;;;;;;107.97;96.50;;;;;;;5.17;100.00;103157.02;1850275;76;85498;-68
2022/03/25 06:58:30;;;;;;;110.07;98.40;;;;;;;5.32;100.00;103160.58;1856076;76;86716;-68
2022/03/25 07:04:21;;;;;;;110.10;98.20;;;;;;;5.37;100.00;103156.72;1839529;76;86539;-69
2022/03/25 07:10:10;;;;;;;111.73;99.53;;;;;;;5.59;100.00;103162.59;1809588;77;86431;-71
2022/03/25 07:15:56;;;;;;;111.53;99.03;;;;;;;5.74;100.00;103161.13;1906719;73;39501;-69
2022/03/25 07:21:41;;;;;;;117.57;103.77;;;;;;;6.00;100.00;103164.70;1866617;76;86709;-68
2022/03/25 07:27:25;;;;;;;114.63;102.17;;;;;;;6.16;100.00;103174.11;1819954;78;86068;-70
2022/03/25 07:33:09;;;;;;;116.17;103.37;;;;;;;6.39;100.00;103168.66;1866054;75;85451;-70
2022/03/25 07:38:54;;;;;;;119.40;106.27;;;;;;;6.72;100.00;103172.16;1902569;74;39688;-70
2022/03/25 07:44:39;;;;;;;116.07;101.33;;;;;;;6.85;100.00;103175.00;1838242;75;86065;-70
2022/03/25 07:50:26;;;;;;;131.20;107.87;;;;;;;7.26;100.00;103177.77;1808560;78;86448;-67
2022/03/25 07:56:10;;;;;;;133.80;114.20;;;;;;;7.66;100.00;103182.35;1838481;76;86602;-69
2022/03/25 08:01:54;;;;;;;143.43;112.93;;;;;;;7.89;100.00;103183.37;1894314;74;39617;-71
2022/03/25 08:07:49;;;;;;;131.00;112.60;;;;;;;8.40;100.00;103184.16;1783152;79;85527;-70
2022/03/25 08:13:34;;;;;;;133.40;115.27;;;;;;;9.14;100.00;103184.66;1857266;76;86348;-67
2022/03/25 08:19:19;;;;;;;137.57;115.90;;;;;;;9.47;100.00;103178.96;1889470;74;86499;-69
2022/03/25 08:31:06;;;;;;;139.53;119.90;;;;;;;10.05;100.00;103177.72;1874450;75;86351;-70
2022/03/25 08:36:51;;;;;;;129.97;114.43;;;;;;;10.36;100.00;103179.64;1903605;73;39651;-68
2022/03/25 08:42:35;;;;;;;128.43;112.77;;;;;;;10.23;100.00;103187.23;1815827;76;86723;-68
2022/03/25 08:48:21;;;;;;;132.60;114.77;;;;;;;10.53;100.00;103186.87;1876843;74;86237;-70
2022/03/25 08:57:12;;;;;;;132.77;115.80;;;;;;;11.02;100.00;103183.16;1872902;75;86303;-69
2022/03/25 08:59:43;;;;;;;130.63;116.73;;;;;;;11.07;100.00;103191.67;1778961;77;942238;-68
2022/03/25 09:05:28;;;;;;;139.67;116.50;;;;;;;11.40;100.00;103187.08;1797463;78;86348;-66
2022/03/25 09:11:14;;;;;;;127.63;106.47;;;;;;;11.42;100.00;103190.49;1855794;76;86328;-67
2022/03/25 09:17:01;;;;;;;126.77;104.33;;;;;;;11.66;100.00;103199.25;1930481;73;85641;-68
2022/03/25 09:22:47;;;;;;;118.93;105.63;;;;;;;11.85;100.00;103196.74;1857465;73;39543;-67
2022/03/25 09:28:32;;;;;;;123.03;104.97;;;;;;;12.18;100.00;103200.44;1838200;75;86608;-68
2022/03/25 09:40:22;;;;;;;117.00;94.57;;;;;;;12.50;100.00;103205.68;1868228;74;86588;-67
2022/03/25 09:46:08;;;;;;;114.10;96.33;;;;;;;12.96;100.00;103209.05;1870692;75;86310;-66
2022/03/25 09:51:54;;;;;;;113.60;88.20;;;;;;;12.89;100.00;103199.39;1864152;73;39700;-68
2022/03/25 09:57:38;;;;;;;107.03;83.43;;;;;;;13.00;100.00;103204.12;1805344;78;86868;-67
2022/03/25 10:03:27;;;;;;;112.33;86.10;;;;;;;13.09;100.00;103208.22;1870241;75;86486;-68
2022/03/25 10:09:14;;;;;;;99.13;78.40;;;;;;;13.44;100.00;103195.61;1808814;77;85382;-67
2022/03/25 10:11:46;;;;;;;99.92;76.72;;;;;;;13.38;100.00;103203.60;1743452;77;938753;-67
2022/03/25 10:17:36;;;;;;;89.10;69.10;;;;;;;13.59;100.00;103200.13;1829760;76;86076;-67
2022/03/25 10:20:11;;;;;;;74.03;61.73;;;;;;;13.71;100.00;103202.02;1787520;77;938825;-66
2022/03/25 10:25:56;;;;;;;66.37;55.17;;;;;;;14.07;100.00;103194.09;1906516;74;39611;-65
2022/03/25 10:32:07;;;;;;;63.87;52.57;;;;;;;14.27;100.00;103191.34;1911716;74;39670;-66
2022/03/25 10:37:59;;;;;;;64.57;51.77;;;;;;;14.32;100.00;103188.09;1894529;74;39691;-68
2022/03/25 10:43:52;;;;;;;58.40;45.80;;;;;;;14.43;100.00;103183.53;1893060;74;39771;-71
2022/03/25 10:49:49;;;;;;;52.43;44.93;;;;;;;14.50;100.00;103171.06;1815132;72;40104;-72
2022/03/25 10:55:38;;;;;;;53.43;42.77;;;;;;;14.80;100.00;103188.05;1858595;76;86465;-69
2022/03/25 11:01:21;;;;;;;57.97;43.80;;;;;;;14.93;100.00;103184.31;1864975;76;85265;-70
2022/03/25 11:07:06;;;;;;;52.97;42.50;;;;;;;15.00;100.00;103181.34;1873173;75;86647;-72
2022/03/25 11:12:53;;;;;;;55.23;42.33;;;;;;;15.20;100.00;103177.97;1905851;74;39574;-72
2022/03/25 11:18:40;;;;;;;57.83;42.50;;;;;;;15.18;100.00;103182.45;1828361;77;86222;-72
2022/03/25 11:24:30;;;;;;;52.37;39.83;;;;;;;15.45;100.00;103175.48;1790340;78;86232;-70
2022/03/25 11:30:17;;;;;;;52.90;39.93;;;;;;;15.61;100.00;103168.16;1859663;75;86174;-72
2022/03/25 11:36:16;;;;;;;54.17;40.33;;;;;;;15.78;100.00;103164.71;1865372;75;86227;-69
2022/03/25 11:42:07;;;;;;;55.30;39.83;;;;;;;15.75;100.00;103161.86;1927143;73;86452;-68
2022/03/25 11:48:15;;;;;;;55.57;40.70;;;;;;;15.85;100.00;103159.18;1907825;74;39515;-72
2022/03/25 11:53:58;;;;;;;50.50;41.00;;;;;;;15.80;100.00;103149.86;1903783;72;86484;-66
2022/03/25 11:59:53;;;;;;;44.27;37.47;;;;;;;16.00;100.00;103151.48;1808508;78;85352;-69
2022/03/25 12:06:00;;;;;;;51.23;38.33;;;;;;;16.32;100.00;103146.72;1871167;73;39618;-69
2022/03/25 12:11:55;;;;;;;41.80;34.27;;;;;;;16.33;100.00;103141.41;1913166;74;39687;-70
2022/03/25 12:17:41;;;;;;;43.93;33.43;;;;;;;16.40;100.00;103142.00;1866318;76;86313;-67
2022/03/25 12:23:25;;;;;;;47.70;38.67;;;;;;;16.22;100.00;103134.00;1807112;78;85401;-67
2022/03/25 12:29:12;;;;;;;48.17;35.50;;;;;;;16.27;100.00;103127.03;1806330;77;86230;-70
2022/03/25 12:35:00;;;;;;;41.87;29.67;;;;;;;16.28;100.00;103124.52;1803028;77;86929;-67
2022/03/25 12:40:47;;;;;;;40.77;34.20;;;;;;;16.27;100.00;103123.38;1906895;74;39727;-69
2022/03/25 12:46:32;;;;;;;40.03;35.37;;;;;;;16.98;100.00;103116.31;1841137;75;86316;-67
2022/03/25 12:52:22;;;;;;;40.30;35.97;;;;;;;17.20;100.00;103110.52;1874397;74;86123;-68
2022/03/25 12:58:08;;;;;;;39.83;33.77;;;;;;;17.09;100.00;103103.99;1861505;76;86600;-69
2022/03/25 13:03:58;;;;;;;41.00;35.33;;;;;;;17.37;100.00;103101.27;1910468;74;39769;-67
2022/03/25 13:09:55;;;;;;;40.87;33.73;;;;;;;17.16;100.00;103096.15;1859476;75;86572;-70
2022/03/25 13:15:46;;;;;;;40.67;35.27;;;;;;;17.45;100.00;103098.51;1912517;73;39623;-71
2022/03/25 13:21:36;;;;;;;39.47;35.03;;;;;;;17.33;100.00;103093.11;1836374;77;86716;-68
2022/03/25 13:27:24;;;;;;;39.43;34.57;;;;;;;17.04;100.00;103078.69;1874797;74;86783;-69
2022/03/25 13:33:12;;;;;;;36.13;30.30;;;;;;;16.79;100.00;103077.17;1810419;77;85448;-70
2022/03/25 13:38:59;;;;;;;32.50;29.00;;;;;;;16.32;100.00;103082.20;1913639;74;86240;-69
2022/03/25 13:44:45;;;;;;;32.50;28.87;;;;;;;16.45;100.00;103075.27;1907086;74;39493;-67
2022/03/25 13:50:31;;;;;;;31.07;28.07;;;;;;;16.44;100.00;103080.58;1857745;75;86209;-71
2022/03/25 13:56:19;;;;;;;29.03;25.57;;;;;;;16.44;100.00;103071.32;1841972;76;86336;-67
2022/03/25 14:02:03;;;;;;;27.27;23.27;;;;;;;16.61;100.00;103066.41;1904033;72;86613;-71
2022/03/25 14:07:49;;;;;;;26.23;23.70;;;;;;;16.74;100.00;103061.71;1883617;74;39720;-70
2022/03/25 14:13:35;;;;;;;24.77;22.07;;;;;;;16.84;100.00;103056.16;1792360;78;85472;-69
2022/03/25 14:19:37;;;;;;;25.23;22.73;;;;;;;16.61;100.00;103049.02;1870801;76;85722;-69
2022/03/25 14:25:27;;;;;;;27.97;25.07;;;;;;;16.95;100.00;103044.39;1877728;74;86108;-71
2022/03/25 14:31:12;;;;;;;27.63;24.70;;;;;;;16.98;100.00;103038.25;1808090;77;86487;-69
2022/03/25 14:36:58;;;;;;;24.30;21.93;;;;;;;17.17;100.00;103033.80;1913641;74;86682;-72
2022/03/25 14:42:45;;;;;;;23.43;21.07;;;;;;;16.98;100.00;103032.08;1902545;74;39741;-68
2022/03/25 14:48:30;;;;;;;23.50;21.10;;;;;;;17.17;100.00;103031.84;1859333;75;86018;-71
2022/03/25 14:54:14;;;;;;;22.03;19.83;;;;;;;17.14;100.00;103015.55;1838466;76;86636;-67
2022/03/25 14:59:57;;;;;;;23.03;19.87;;;;;;;17.08;100.00;103008.22;1913182;72;86358;-70
2022/03/25 15:05:44;;;;;;;21.50;19.37;;;;;;;17.07;100.00;103006.52;1819208;78;85122;-70
2022/03/25 15:11:27;;;;;;;21.93;19.00;;;;;;;17.01;100.00;103012.41;1820940;78;86292;-69
2022/03/25 15:17:13;;;;;;;21.50;19.30;;;;;;;17.13;100.00;103007.39;1821886;77;86132;-68
2022/03/25 15:22:58;;;;;;;21.93;19.83;;;;;;;17.22;100.00;103005.17;1912983;74;86260;-69
2022/03/25 15:28:43;;;;;;;19.93;17.83;;;;;;;16.85;100.00;102965.20;1762254;74;85760;-67
2022/03/25 15:34:30;;;;;;;20.57;18.57;;;;;;;17.17;100.00;103002.34;1857510;72;85556;-69
2022/03/25 15:40:17;;;;;;;19.40;17.50;;;;;;;17.12;100.00;102997.27;1829851;76;86478;-69
2022/03/25 15:46:01;;;;;;;20.17;18.30;;;;;;;17.08;100.00;102994.73;1947328;72;86140;-69
2022/03/25 15:51:48;;;;;;;18.90;17.03;;;;;;;17.12;100.00;102994.45;1895721;74;39665;-71
2022/03/25 15:57:30;;;;;;;18.60;16.83;;;;;;;16.84;100.00;103001.41;1867958;75;86601;-69
2022/03/25 16:03:14;;;;;;;18.30;15.93;;;;;;;16.91;100.00;102999.18;1823254;76;85899;-71
2022/03/25 16:08:59;;;;;;;16.93;15.43;;;;;;;16.95;100.00;102995.25;1923679;73;86340;-70
2022/03/25 16:14:43;;;;;;;17.23;15.80;;;;;;;17.04;100.00;102996.41;1879488;73;39776;-74
2022/03/25 16:20:31;;;;;;;17.03;15.53;;;;;;;16.79;100.00;102997.17;1852769;76;86539;-72
2022/03/25 16:26:15;;;;;;;16.80;15.03;;;;;;;16.58;100.00;102996.25;1848328;76;85447;-71
2022/03/25 16:32:01;;;;;;;19.90;18.13;;;;;;;16.53;100.00;103003.20;1910679;74;85956;-72
2022/03/25 16:37:47;;;;;;;19.73;17.73;;;;;;;16.44;100.00;102996.42;1910768;74;39648;-70
2022/03/25 16:43:35;;;;;;;18.77;16.93;;;;;;;16.43;100.00;103006.53;1826945;75;85771;-73
2022/03/25 16:49:20;;;;;;;17.87;16.17;;;;;;;16.33;100.00;102999.74;1862565;76;85568;-72
2022/03/25 16:55:05;;;;;;;17.50;15.80;;;;;;;16.21;100.00;103004.73;1906911;72;85928;-73
2022/03/25 17:00:48;;;;;;;15.97;14.57;;;;;;;15.99;100.00;103009.61;1854035;73;39581;-70
2022/03/25 17:06:34;;;;;;;16.30;14.87;;;;;;;15.96;100.00;103008.73;1827078;75;86197;-71
2022/03/25 17:12:19;;;;;;;15.17;13.87;;;;;;;15.89;100.00;103007.57;1881766;74;86138;-72
2022/03/25 17:18:07;;;;;;;15.83;14.63;;;;;;;15.66;100.00;103009.91;1875741;75;86255;-69
2022/03/25 17:23:52;;;;;;;16.20;14.80;;;;;;;15.57;100.00;103013.76;1870386;73;39750;-70
2022/03/25 17:29:37;;;;;;;14.57;13.17;;;;;;;15.56;100.00;103021.86;1867730;76;86341;-70
2022/03/25 17:35:24;;;;;;;16.50;15.20;;;;;;;15.40;100.00;103025.61;1871246;75;86467;-69
2022/03/25 17:41:08;;;;;;;17.73;15.93;;;;;;;15.30;100.00;103027.73;1849772;75;86716;-68
2022/03/25 17:46:52;;;;;;;16.30;14.73;;;;;;;15.11;100.00;103019.95;1893328;73;40203;-72
2022/03/25 17:52:40;;;;;;;15.20;13.60;;;;;;;15.11;100.00;103031.14;1828498;75;86684;-70
2022/03/25 17:58:25;;;;;;;15.20;14.03;;;;;;;14.92;100.00;103035.71;1885878;74;86289;-69
2022/03/25 18:04:09;;;;;;;15.70;14.50;;;;;;;14.73;100.00;103042.73;1827115;76;86261;-70
2022/03/25 18:09:55;;;;;;;16.07;14.73;;;;;;;14.53;100.00;103052.25;1866524;73;39636;-69
2022/03/25 18:15:40;;;;;;;15.90;14.27;;;;;;;14.28;100.00;103054.64;1803104;77;86127;-69
2022/03/25 18:21:23;;;;;;;15.33;13.87;;;;;;;13.90;100.00;103037.28;1829367;76;86173;-72
2022/03/25 18:27:08;;;;;;;16.43;15.20;;;;;;;13.64;100.00;103054.16;1870722;75;85599;-69
2022/03/25 18:32:54;;;;;;;15.50;14.13;;;;;;;13.39;100.00;103060.09;1906392;74;39699;-68
2022/03/25 18:38:39;;;;;;;15.93;14.77;;;;;;;13.05;100.00;103058.30;1827597;75;85807;-69
2022/03/25 18:44:23;;;;;;;17.53;15.87;;;;;;;12.97;100.00;103069.82;1894102;74;86522;-70
2022/03/25 18:50:09;;;;;;;19.97;17.97;;;;;;;12.81;100.00;103069.20;1874341;75;86487;-66
2022/03/25 18:55:53;;;;;;;18.67;17.17;;;;;;;12.49;100.00;103072.44;1889322;74;39854;-71
2022/03/25 19:01:37;;;;;;;20.40;18.53;;;;;;;12.31;100.00;103076.73;1830548;76;86375;-68
2022/03/25 19:07:23;;;;;;;21.50;19.43;;;;;;;12.21;100.00;103082.06;1862599;76;86156;-68
2022/03/25 19:13:07;;;;;;;25.20;23.07;;;;;;;12.10;100.00;103085.70;1806808;77;85322;-67
2022/03/25 19:18:51;;;;;;;28.90;26.30;;;;;;;12.04;100.00;103090.83;1913140;74;39696;-71
2022/03/25 19:24:37;;;;;;;27.03;24.97;;;;;;;11.75;100.00;103101.81;1866320;76;86659;-71
2022/03/25 19:30:22;;;;;;;27.60;25.20;;;;;;;11.68;100.00;103103.80;1879595;74;85736;-67
2022/03/25 19:36:09;;;;;;;27.10;25.13;;;;;;;11.58;100.00;103110.50;1874372;75;86610;-71
2022/03/25 19:41:53;;;;;;;32.63;29.60;;;;;;;11.49;100.00;103117.48;1898587;73;39710;-68
2022/03/25 19:47:38;;;;;;;34.53;31.53;;;;;;;11.18;100.00;103124.65;1793226;78;85975;-68
2022/03/25 19:53:28;;;;;;;33.70;31.10;;;;;;;11.19;100.00;103127.75;1778734;79;86112;-69
2022/03/25 19:59:11;;;;;;;32.17;29.97;;;;;;;11.17;100.00;103126.58;1801316;77;86328;-69
2022/03/25 20:04:56;;;;;;;33.70;31.20;;;;;;;11.04;100.00;103136.48;1904852;74;39593;-69
2022/03/25 20:10:41;;;;;;;32.40;29.90;;;;;;;10.90;100.00;103141.37;1822967;78;86331;-71
2022/03/25 20:16:27;;;;;;;38.50;35.57;;;;;;;10.82;100.00;103146.39;1789605;78;85306;-71
2022/03/25 20:22:14;;;;;;;42.07;38.93;;;;;;;10.70;100.00;103154.63;1874454;75;86049;-71
2022/03/25 20:28:02;;;;;;;44.90;41.67;;;;;;;10.51;100.00;103162.64;1917934;72;85977;-69
2022/03/25 20:33:46;;;;;;;45.27;41.73;;;;;;;10.49;100.00;103173.13;1868899;73;39613;-69
2022/03/25 20:39:32;;;;;;;46.67;43.07;;;;;;;10.34;100.00;103172.63;1845165;75;86453;-72
2022/03/25 20:45:16;;;;;;;48.57;45.03;;;;;;;10.12;100.00;103182.39;1842074;75;86183;-69
2022/03/25 20:51:01;;;;;;;50.63;47.13;;;;;;;10.13;100.00;103180.78;1924067;71;85407;-69
2022/03/25 20:59:51;;;;;;;45.13;41.73;;;;;;;10.09;100.00;103183.70;1972458;69;39477;-69
2022/03/25 21:02:22;;;;;;;42.97;39.83;;;;;;;10.12;100.00;103188.80;1923025;73;936612;-73
2022/03/25 21:04:53;;;;;;;45.93;42.07;;;;;;;10.16;100.00;103187.30;1907226;73;939730;-67
2022/03/25 21:07:23;;;;;;;45.20;41.40;;;;;;;10.06;100.00;103191.08;1922350;73;938821;-71
2022/03/25 21:09:53;;;;;;;46.03;42.40;;;;;;;10.03;100.00;103188.22;1884201;73;940846;-70
2022/03/25 21:12:24;;;;;;;47.17;43.37;;;;;;;9.87;100.00;103191.55;1860855;74;938988;-69
2022/03/25 21:14:54;;;;;;;45.90;42.43;;;;;;;9.89;100.00;103185.22;1849946;74;938747;-69
2022/03/25 21:17:25;;;;;;;48.40;44.45;;;;;;;9.78;100.00;103194.80;1861625;75;936944;-69
2022/03/25 21:23:12;;;;;;;46.40;42.83;;;;;;;9.73;100.00;103191.30;1803357;77;86338;-69
2022/03/25 21:28:57;;;;;;;52.83;49.13;;;;;;;9.61;100.00;103201.41;1805851;78;86740;-72
2022/03/25 21:34:41;;;;;;;49.77;46.27;;;;;;;9.62;100.00;103204.52;1871313;75;85276;-67
2022/03/25 21:40:25;;;;;;;51.13;47.27;;;;;;;9.35;100.00;103208.47;1821051;78;86652;-70
2022/03/25 21:46:10;;;;;;;52.53;48.93;;;;;;;9.40;100.00;103214.22;1863130;75;85425;-71
2022/03/25 21:51:54;;;;;;;50.03;46.43;;;;;;;9.19;100.00;103226.98;1907481;73;39808;-69
2022/03/25 21:57:37;;;;;;;55.03;50.83;;;;;;;9.06;100.00;103221.80;1918454;73;86783;-71
2022/03/25 22:03:23;;;;;;;63.40;59.13;;;;;;;8.87;100.00;103231.00;1864279;75;86573;-70
2022/03/25 22:09:08;;;;;;;67.53;63.23;;;;;;;8.94;100.00;103222.69;1802515;77;86742;-70
2022/03/25 22:14:52;;;;;;;67.07;62.23;;;;;;;8.97;100.00;103227.80;1871417;73;39796;-71
2022/03/25 22:20:37;;;;;;;65.83;61.13;;;;;;;8.86;100.00;103221.50;1816465;76;86609;-72
2022/03/25 22:26:22;;;;;;;74.73;69.93;;;;;;;8.61;100.00;103226.34;1864288;76;86359;-68
2022/03/25 22:35:15;;;;;;;79.53;74.30;;;;;;;8.47;100.00;103218.27;1895188;73;86024;-69
2022/03/25 22:37:47;;;;;;;78.27;73.27;;;;;;;8.54;100.00;103232.96;1779847;78;935854;-70
2022/03/25 22:40:18;;;;;;;81.50;76.20;;;;;;;8.22;100.00;103239.62;1799334;77;937026;-67
2022/03/25 22:42:48;;;;;;;80.12;74.95;;;;;;;8.20;100.00;103233.45;1783938;78;937854;-69
2022/03/25 22:45:18;;;;;;;81.08;75.47;;;;;;;8.18;100.00;103235.57;1797399;77;936737;-70
2022/03/25 22:51:05;;;;;;;82.03;76.50;;;;;;;8.24;100.00;103234.73;1916428;74;85638;-69
2022/03/25 22:56:50;;;;;;;83.30;77.63;;;;;;;8.06;100.00;103233.11;1864115;75;39668;-68
2022/03/25 23:02:33;;;;;;;82.30;76.90;;;;;;;8.17;100.00;103233.86;1881615;75;86092;-69
2022/03/25 23:08:18;;;;;;;84.43;78.53;;;;;;;8.26;100.00;103233.12;1835381;76;86437;-69
2022/03/25 23:14:03;;;;;;;90.80;84.43;;;;;;;8.04;100.00;103239.93;1939535;73;86341;-68
2022/03/25 23:19:48;;;;;;;83.63;78.23;;;;;;;7.70;100.00;103240.91;1867905;73;39592;-69
2022/03/25 23:25:35;;;;;;;87.30;81.57;;;;;;;7.76;100.00;103235.38;1834281;75;86839;-69
2022/03/25 23:31:21;;;;;;;86.17;79.93;;;;;;;7.63;100.00;103243.64;1864134;75;86318;-68
2022/03/25 23:37:11;;;;;;;87.57;81.10;;;;;;;7.59;100.00;103248.41;1801476;77;86761;-67
2022/03/25 23:42:56;;;;;;;86.70;80.57;;;;;;;7.56;100.00;103243.30;1883623;75;85673;-70
2022/03/25 23:48:43;;;;;;;88.63;81.77;;;;;;;7.58;100.00;103244.78;1865730;73;39740;-69
2022/03/25 23:54:27;;;;;;;81.57;76.03;;;;;;;7.12;100.00;103257.01;1867667;75;86680;-68
